Time;durP1;ratioP1;P1;durP2;ratioP2;P2;SDS_P1;SDS_P2;PMS_P1;PMS_P2;Temp;Humidity;BMP_temperature;BMP_pressure;BME280_temperature;BME280_humidity;BME280_pressure;Samples;Min_cycle;Max_cycle;Signal;HPM_P1;HPM_P2
2022/05/12 00:01:12;;;;;;;;;;;;;;;23.39;50.36;100338.66;5004215;28;96811;-67
2022/05/12 00:03:38;;;;;;;;;;;;;;;23.57;49.55;100339.59;5005430;28;98569;-67
2022/05/12 00:06:05;;;;;;;;;;;;;;;23.84;48.88;100342.34;5007846;28;99027;-67
2022/05/12 00:08:31;;;;;;;;;;;;;;;23.66;49.86;100325.25;4998696;28;98842;-66
2022/05/12 00:10:59;;;;;;;;;;;;;;;23.51;50.02;100320.47;5000136;28;97610;-67
2022/05/12 00:13:25;;;;;;;;;;;;;;;23.43;50.83;100335.50;5004830;28;97068;-66
2022/05/12 00:15:52;;;;;;;;;;;;;;;23.42;51.83;100338.38;5003326;28;99644;-67
2022/05/12 00:18:19;;;;;;;;;;;;;;;23.10;52.74;100330.66;4999661;28;99154;-66
2022/05/12 00:20:45;;;;;;;;;;;;;;;23.38;52.18;100324.31;5003705;28;98593;-67
2022/05/12 00:23:13;;;;;;;;;;;;;;;23.39;50.02;100331.41;5001272;28;96937;-67
2022/05/12 00:25:40;;;;;;;;;;;;;;;23.24;49.22;100313.13;5004277;28;99323;-68
2022/05/12 00:28:08;;;;;;;;;;;;;;;23.44;49.25;100307.56;5004136;28;98392;-66
2022/05/12 00:30:35;;;;;;;;;;;;;;;23.56;48.91;100307.41;5006771;28;96873;-68
2022/05/12 00:33:02;;;;;;;;;;;;;;;23.47;49.12;100313.66;5002587;28;98899;-70
2022/05/12 00:35:29;;;;;;;;;;;;;;;23.48;50.44;100305.47;5004898;28;97390;-67
2022/05/12 00:37:55;;;;;;;;;;;;;;;23.76;49.87;100307.16;5007747;28;98781;-69
2022/05/12 00:40:22;;;;;;;;;;;;;;;23.58;50.32;100305.41;5003544;28;97361;-67
2022/05/12 00:42:56;;;;;;;;;;;;;;;23.41;50.59;100305.16;5001170;28;96923;-66
2022/05/12 00:45:24;;;;;;;;;;;;;;;23.41;51.59;100315.94;5000089;28;99045;-67
2022/05/12 00:47:51;;;;;;;;;;;;;;;23.36;52.04;100317.38;5004843;28;101165;-67
2022/05/12 00:50:17;;;;;;;;;;;;;;;23.52;49.97;100306.00;5002518;28;97742;-68
2022/05/12 00:52:44;;;;;;;;;;;;;;;23.64;48.81;100305.66;5005508;28;96870;-68
2022/05/12 00:55:13;;;;;;;;;;;;;;;23.63;48.38;100305.84;5002169;28;99118;-68
2022/05/12 00:57:41;;;;;;;;;;;;;;;23.62;50.15;100312.22;5004739;28;97699;-66
2022/05/12 01:00:10;;;;;;;;;;;;;;;23.55;50.92;100308.41;5000515;28;96879;-68
2022/05/12 01:02:37;;;;;;;;;;;;;;;23.55;50.66;100305.72;5000946;28;96970;-67
2022/05/12 01:05:07;;;;;;;;;;;;;;;23.59;49.13;100299.03;5000975;28;118439;-68
2022/05/12 01:07:33;;;;;;;;;;;;;;;23.58;48.12;100306.25;5008769;28;98906;-68
2022/05/12 01:10:00;;;;;;;;;;;;;;;23.56;47.87;100302.03;4998743;28;99095;-68
2022/05/12 01:12:27;;;;;;;;;;;;;;;23.59;47.93;100309.81;5003039;28;98542;-67
2022/05/12 01:14:53;;;;;;;;;;;;;;;23.61;47.92;100321.31;5001809;28;99290;-68
2022/05/12 01:17:19;;;;;;;;;;;;;;;23.45;47.55;100354.25;5008740;28;97547;-68
2022/05/12 01:19:48;;;;;;;;;;;;;;;23.39;47.76;100350.28;5003279;28;98884;-68
2022/05/12 01:22:28;;;;;;;;;;;;;;;23.15;47.75;100362.53;5004907;28;96961;-69
2022/05/12 01:24:56;;;;;;;;;;;;;;;22.93;48.18;100386.09;5006191;28;102127;-68
2022/05/12 01:27:29;;;;;;;;;;;;;;;22.19;49.04;100369.53;5004732;28;98700;-68
2022/05/12 01:29:57;;;;;;;;;;;;;;;22.66;48.02;100408.31;5002746;28;97699;-68
2022/05/12 01:32:24;;;;;;;;;;;;;;;22.42;49.16;100415.91;5000395;28;97617;-68
2022/05/12 01:34:52;;;;;;;;;;;;;;;21.73;51.79;100409.50;5003290;28;99063;-69
2022/05/12 01:37:19;;;;;;;;;;;;;;;22.51;51.18;100400.78;5001448;28;99509;-68
2022/05/12 01:39:45;;;;;;;;;;;;;;;22.06;52.26;100394.97;5002389;28;96897;-68
2022/05/12 01:42:13;;;;;;;;;;;;;;;22.20;52.38;100399.97;5003858;28;99235;-68
2022/05/12 01:44:40;;;;;;;;;;;;;;;22.26;51.71;100402.13;5007001;28;99144;-68
2022/05/12 01:47:07;;;;;;;;;;;;;;;21.91;52.09;100407.06;4998755;28;98841;-69
2022/05/12 01:49:33;;;;;;;;;;;;;;;22.00;52.62;100414.34;5001727;28;97651;-68
2022/05/12 01:52:00;;;;;;;;;;;;;;;21.94;52.58;100407.63;5004118;28;96951;-68
2022/05/12 01:54:27;;;;;;;;;;;;;;;21.73;53.13;100426.50;5002750;28;100014;-68
2022/05/12 01:56:54;;;;;;;;;;;;;;;21.77;53.25;100427.97;5001276;28;98817;-68
2022/05/12 01:59:23;;;;;;;;;;;;;;;21.97;52.36;100449.59;5002694;28;96841;-68
2022/05/12 02:01:49;;;;;;;;;;;;;;;21.48;53.81;100434.97;4999236;28;97251;-68
2022/05/12 02:04:16;;;;;;;;;;;;;;;21.13;54.75;100411.09;5002929;28;99436;-68
2022/05/12 02:06:42;;;;;;;;;;;;;;;21.38;53.79;100415.25;5000241;28;99180;-68
2022/05/12 02:09:09;;;;;;;;;;;;;;;21.51;53.72;100437.41;5004009;28;96966;-74
2022/05/12 02:11:35;;;;;;;;;;;;;;;21.28;53.66;100457.31;5002800;28;96968;-73
2022/05/12 02:14:02;;;;;;;;;;;;;;;21.35;54.18;100469.25;5002918;28;98866;-73
2022/05/12 02:16:30;;;;;;;;;;;;;;;21.20;54.68;100470.56;5004329;28;98823;-73
2022/05/12 02:18:56;;;;;;;;;;;;;;;21.50;54.27;100480.56;5008821;28;97653;-73
2022/05/12 02:21:22;;;;;;;;;;;;;;;20.09;58.67;100487.66;5002574;28;96883;-74
2022/05/12 02:23:49;;;;;;;;;;;;;;;20.49;58.50;100494.25;5003487;28;97903;-73
2022/05/12 02:26:15;;;;;;;;;;;;;;;20.13;60.10;100484.63;5002075;28;98803;-72
2022/05/12 02:28:42;;;;;;;;;;;;;;;20.30;59.45;100502.06;5007042;28;98740;-72
2022/05/12 02:31:08;;;;;;;;;;;;;;;20.18;60.41;100503.88;5004079;28;97806;-73
2022/05/12 02:33:36;;;;;;;;;;;;;;;20.78;58.70;100510.72;5003903;28;99158;-73
2022/05/12 02:36:02;;;;;;;;;;;;;;;20.14;59.79;100525.72;5003708;28;97076;-73
2022/05/12 02:38:29;;;;;;;;;;;;;;;20.34;60.17;100524.19;5003185;28;96977;-74
2022/05/12 02:40:55;;;;;;;;;;;;;;;20.24;60.52;100524.88;5001021;28;96754;-73
2022/05/12 02:43:24;;;;;;;;;;;;;;;19.60;62.91;100522.81;5009912;28;98266;-73
2022/05/12 02:45:51;;;;;;;;;;;;;;;20.23;62.01;100536.56;5004292;28;98844;-72
2022/05/12 02:48:18;;;;;;;;;;;;;;;20.55;60.85;100534.03;5007897;28;97434;-73
2022/05/12 02:50:45;;;;;;;;;;;;;;;20.24;60.34;100535.59;5005985;28;96918;-72
2022/05/12 02:53:11;;;;;;;;;;;;;;;20.40;60.65;100527.22;5003645;28;98941;-73
2022/05/12 02:55:38;;;;;;;;;;;;;;;19.92;60.97;100534.59;5005442;28;98786;-73
2022/05/12 02:58:04;;;;;;;;;;;;;;;20.15;60.39;100516.72;4999808;28;97013;-74
2022/05/12 03:00:31;;;;;;;;;;;;;;;20.30;60.15;100513.66;5007664;28;97944;-72
2022/05/12 03:02:57;;;;;;;;;;;;;;;20.63;58.58;100507.44;5008496;28;97838;-73
2022/05/12 03:05:23;;;;;;;;;;;;;;;20.74;58.11;100493.16;5003978;28;99336;-73
2022/05/12 03:07:52;;;;;;;;;;;;;;;20.47;59.23;100519.53;5005859;28;98589;-73
2022/05/12 03:10:18;;;;;;;;;;;;;;;20.96;58.46;100533.38;5006063;28;96916;-72
2022/05/12 03:12:45;;;;;;;;;;;;;;;20.91;58.59;100534.72;5003158;28;99522;-73
2022/05/12 03:15:12;;;;;;;;;;;;;;;20.48;59.15;100537.34;5004996;28;100091;-72
2022/05/12 03:17:38;;;;;;;;;;;;;;;20.81;59.21;100525.69;5001453;28;99102;-72
2022/05/12 03:20:09;;;;;;;;;;;;;;;20.93;58.10;100506.78;5007055;28;97686;-73
2022/05/12 03:22:36;;;;;;;;;;;;;;;20.92;58.35;100523.88;4999764;28;100050;-74
2022/05/12 03:25:03;;;;;;;;;;;;;;;20.91;58.62;100557.06;5004967;28;98798;-72
2022/05/12 03:27:30;;;;;;;;;;;;;;;20.50;58.77;100555.03;5003775;28;97719;-72
2022/05/12 03:29:56;;;;;;;;;;;;;;;20.73;59.14;100563.94;5006247;28;96945;-73
2022/05/12 03:32:23;;;;;;;;;;;;;;;20.45;60.03;100570.66;5006710;28;99506;-73
2022/05/12 03:34:49;;;;;;;;;;;;;;;20.51;59.98;100563.94;5007168;28;99612;-73
2022/05/12 03:37:16;;;;;;;;;;;;;;;20.20;60.16;100558.28;5007014;28;97575;-73
2022/05/12 03:39:43;;;;;;;;;;;;;;;20.58;59.84;100551.75;5009190;28;98503;-71
2022/05/12 03:42:12;;;;;;;;;;;;;;;20.33;60.12;100549.31;5000282;28;98679;-73
2022/05/12 03:44:50;;;;;;;;;;;;;;;20.00;59.91;100568.84;5008318;28;98900;-72
2022/05/12 03:47:19;;;;;;;;;;;;;;;20.17;60.14;100571.94;5006217;28;96892;-71
2022/05/12 03:49:45;;;;;;;;;;;;;;;19.93;60.11;100557.75;5005786;28;98718;-72
2022/05/12 03:52:12;;;;;;;;;;;;;;;20.26;59.00;100568.53;5000683;28;99274;-72
2022/05/12 03:54:40;;;;;;;;;;;;;;;19.55;60.16;100566.03;5006436;28;99226;-73
2022/05/12 03:57:07;;;;;;;;;;;;;;;20.22;58.91;100564.38;5004536;28;98460;-72
2022/05/12 03:59:38;;;;;;;;;;;;;;;19.97;59.52;100559.22;5008571;28;96986;-73
2022/05/12 04:02:04;;;;;;;;;;;;;;;20.02;59.78;100586.50;5007105;28;101449;-73
2022/05/12 04:04:31;;;;;;;;;;;;;;;19.92;59.82;100585.53;5007075;28;99814;-73
2022/05/12 04:06:58;;;;;;;;;;;;;;;19.97;59.69;100601.25;5007560;28;96808;-73
2022/05/12 04:09:24;;;;;;;;;;;;;;;20.16;58.88;100607.78;5004918;28;96792;-73
2022/05/12 04:11:51;;;;;;;;;;;;;;;20.32;57.93;100601.22;5002935;28;99485;-73
2022/05/12 04:14:17;;;;;;;;;;;;;;;20.17;58.29;100620.22;4998530;28;101447;-74
2022/05/12 04:16:45;;;;;;;;;;;;;;;20.27;57.70;100621.22;5005054;28;97377;-73
2022/05/12 04:19:11;;;;;;;;;;;;;;;19.87;59.29;100634.16;5000906;28;97048;-73
2022/05/12 04:21:38;;;;;;;;;;;;;;;19.99;58.37;100615.41;5005579;28;100841;-73
2022/05/12 04:24:05;;;;;;;;;;;;;;;19.81;58.22;100634.63;5001657;28;99049;-72
2022/05/12 04:26:32;;;;;;;;;;;;;;;19.18;60.09;100616.09;5011834;28;97571;-73
2022/05/12 04:28:58;;;;;;;;;;;;;;;19.76;59.51;100625.19;5005141;28;99021;-74
2022/05/12 04:31:25;;;;;;;;;;;;;;;19.86;58.64;100639.63;5002372;28;99029;-75
2022/05/12 04:36:36;;;;;;;;;;;;;;;18.84;60.19;100643.63;5002105;28;96896;-74
2022/05/12 04:39:03;;;;;;;;;;;;;;;19.29;58.84;100637.63;5002129;28;96902;-67
2022/05/12 04:41:29;;;;;;;;;;;;;;;18.59;60.65;100645.34;5006452;28;100409;-66
2022/05/12 04:43:56;;;;;;;;;;;;;;;18.60;60.86;100660.44;5005276;28;97688;-67
2022/05/12 04:46:22;;;;;;;;;;;;;;;18.47;61.40;100658.69;5009280;28;98997;-66
2022/05/12 04:48:48;;;;;;;;;;;;;;;18.99;59.08;100653.22;5001785;28;97071;-67
2022/05/12 04:51:16;;;;;;;;;;;;;;;19.09;58.52;100665.00;5004684;28;99269;-74
2022/05/12 04:53:42;;;;;;;;;;;;;;;19.15;58.18;100671.72;4998986;28;99045;-74
2022/05/12 04:56:08;;;;;;;;;;;;;;;19.69;57.21;100664.19;5007873;28;96712;-75
2022/05/12 04:58:35;;;;;;;;;;;;;;;19.10;56.43;100691.63;5004055;28;96804;-73
2022/05/12 05:01:01;;;;;;;;;;;;;;;18.87;56.69;100689.75;5005505;28;101843;-66
2022/05/12 05:03:27;;;;;;;;;;;;;;;19.77;55.24;100710.03;4997432;28;102129;-68
2022/05/12 05:05:54;;;;;;;;;;;;;;;19.80;54.93;100712.47;5001177;28;96810;-67
2022/05/12 05:08:23;;;;;;;;;;;;;;;18.90;56.10;100720.81;4999223;28;97059;-68
2022/05/12 05:10:51;;;;;;;;;;;;;;;19.31;55.30;100728.56;5007439;28;98872;-68
2022/05/12 05:13:19;;;;;;;;;;;;;;;19.92;53.99;100727.66;4998334;28;98942;-67
2022/05/12 05:15:45;;;;;;;;;;;;;;;20.00;53.81;100740.50;4994179;28;97196;-72
2022/05/12 05:18:12;;;;;;;;;;;;;;;19.73;52.57;100733.53;4998220;28;96964;-68
2022/05/12 05:20:38;;;;;;;;;;;;;;;19.20;53.85;100742.75;4997113;28;97843;-67
2022/05/12 05:23:04;;;;;;;;;;;;;;;18.88;53.14;100749.50;4998090;28;98871;-73
2022/05/12 05:25:32;;;;;;;;;;;;;;;18.78;53.87;100756.47;5000949;28;98733;-73
2022/05/12 05:27:59;;;;;;;;;;;;;;;19.09;52.87;100777.47;5002952;28;97241;-72
2022/05/12 05:30:26;;;;;;;;;;;;;;;19.56;52.12;100776.78;5000744;28;99644;-72
2022/05/12 05:32:52;;;;;;;;;;;;;;;19.18;51.61;100790.19;4995842;28;102466;-71
2022/05/12 05:35:19;;;;;;;;;;;;;;;18.93;51.54;100787.53;5008426;28;98492;-73
2022/05/12 05:37:47;;;;;;;;;;;;;;;18.28;51.88;100800.88;5004482;28;96851;-72
2022/05/12 05:40:14;;;;;;;;;;;;;;;18.79;51.40;100809.03;5001601;28;101306;-74
2022/05/12 05:42:43;;;;;;;;;;;;;;;18.83;50.24;100808.75;5005678;28;97648;-66
2022/05/12 05:45:15;;;;;;;;;;;;;;;18.81;49.54;100823.19;5008920;28;96835;-68
2022/05/12 05:47:43;;;;;;;;;;;;;;;18.84;47.87;100823.00;5007451;28;96788;-67
2022/05/12 05:50:09;;;;;;;;;;;;;;;19.22;47.50;100828.34;4999837;28;101786;-68
2022/05/12 05:55:19;;;;;;;;;;;;;;;19.98;46.28;100837.16;4998075;28;96830;-70
2022/05/12 05:57:47;;;;;;;;;;;;;;;18.88;48.32;100861.97;5005397;28;96858;-69
2022/05/12 06:00:15;;;;;;;;;;;;;;;18.71;48.34;100873.78;5001033;28;98994;-69
2022/05/12 06:02:41;;;;;;;;;;;;;;;19.07;47.25;100875.81;5004920;28;98837;-67
2022/05/12 06:05:09;;;;;;;;;;;;;;;20.11;45.00;100872.84;5002288;28;97565;-68
2022/05/12 06:07:35;;;;;;;;;;;;;;;20.41;44.41;100879.66;5011160;28;97022;-69
2022/05/12 06:10:07;;;;;;;;;;;;;;;19.02;46.62;100886.00;5011056;28;98773;-70
2022/05/12 06:12:34;;;;;;;;;;;;;;;19.94;44.64;100894.69;5009574;28;97670;-73
2022/05/12 06:15:02;;;;;;;;;;;;;;;19.90;44.84;100896.72;5014005;28;96793;-73
2022/05/12 06:17:29;;;;;;;;;;;;;;;20.35;43.60;100906.94;5011889;28;96871;-73
2022/05/12 06:19:55;;;;;;;;;;;;;;;20.07;44.02;100911.59;5011902;28;98267;-72
2022/05/12 06:22:22;;;;;;;;;;;;;;;19.54;44.87;100918.09;5015922;28;99056;-74
2022/05/12 06:24:49;;;;;;;;;;;;;;;19.42;44.74;100925.16;5003327;28;97144;-68
2022/05/12 06:27:16;;;;;;;;;;;;;;;19.21;45.70;100929.28;5010314;28;96880;-67
2022/05/12 06:29:44;;;;;;;;;;;;;;;19.35;46.21;100947.09;5006659;28;99271;-67
2022/05/12 06:32:12;;;;;;;;;;;;;;;18.88;46.46;100953.84;5007159;28;98200;-68
2022/05/12 06:34:41;;;;;;;;;;;;;;;19.64;44.89;100969.22;5008698;28;97063;-69
2022/05/12 06:37:08;;;;;;;;;;;;;;;19.38;45.31;100961.13;5006087;28;96870;-71
2022/05/12 06:39:34;;;;;;;;;;;;;;;20.05;44.03;100966.31;5004692;28;98956;-68
2022/05/12 06:42:01;;;;;;;;;;;;;;;19.98;43.40;100978.44;5008276;28;98766;-68
2022/05/12 06:44:29;;;;;;;;;;;;;;;19.83;43.64;100980.38;5011232;28;97542;-69
2022/05/12 06:46:56;;;;;;;;;;;;;;;20.21;43.06;100991.97;5010249;28;99242;-73
2022/05/12 06:49:28;;;;;;;;;;;;;;;19.95;43.62;101002.81;5011085;28;98984;-73
2022/05/12 06:51:55;;;;;;;;;;;;;;;20.24;42.55;100986.34;5009548;28;98121;-73
2022/05/12 06:54:22;;;;;;;;;;;;;;;19.58;43.57;101012.53;5015215;28;96989;-72
2022/05/12 06:56:49;;;;;;;;;;;;;;;20.44;42.47;101025.19;5008538;28;97006;-72
2022/05/12 06:59:15;;;;;;;;;;;;;;;20.81;41.87;101012.63;5010362;28;98737;-73
2022/05/12 07:01:42;;;;;;;;;;;;;;;19.99;42.43;101023.94;5012275;28;99168;-73
2022/05/12 07:04:08;;;;;;;;;;;;;;;19.67;43.44;101039.59;5018055;28;96959;-74
2022/05/12 07:06:35;;;;;;;;;;;;;;;20.01;43.28;101045.31;5012993;28;97208;-76
2022/05/12 07:09:02;;;;;;;;;;;;;;;20.18;42.65;101051.19;5012867;28;98882;-73
2022/05/12 07:11:28;;;;;;;;;;;;;;;20.42;41.94;101053.09;5012601;28;96865;-67
2022/05/12 07:13:54;;;;;;;;;;;;;;;20.19;42.54;101071.69;5009949;28;97492;-67
2022/05/12 07:16:21;;;;;;;;;;;;;;;19.94;43.28;101066.31;5011013;28;96975;-67
2022/05/12 07:18:48;;;;;;;;;;;;;;;20.02;43.41;101077.34;5012961;28;101549;-68
2022/05/12 07:26:45;;;;;;;;;;;;;;;20.37;42.59;101095.53;5000772;28;99005;-67
2022/05/12 07:29:14;;;;;;;;;;;;;;;20.01;42.58;101098.94;5006257;28;97965;-67
2022/05/12 07:31:41;;;;;;;;;;;;;;;19.83;43.11;101103.72;5003241;28;99108;-66
2022/05/12 07:34:08;;;;;;;;;;;;;;;20.11;42.16;101114.28;5004281;28;99170;-67
2022/05/12 07:36:37;;;;;;;;;;;;;;;20.36;42.19;101120.66;5003750;28;97428;-67
2022/05/12 07:39:05;;;;;;;;;;;;;;;20.55;40.48;101134.47;5005588;28;97982;-68
2022/05/12 07:41:32;;;;;;;;;;;;;;;20.24;39.99;101125.88;5014384;28;98762;-67
2022/05/12 07:43:59;;;;;;;;;;;;;;;20.83;39.50;101152.19;5004914;28;96767;-68
2022/05/12 07:46:31;;;;;;;;;;;;;;;20.53;39.47;101152.53;5011571;28;96777;-68
2022/05/12 07:48:58;;;;;;;;;;;;;;;21.44;38.13;101165.59;5003932;28;101483;-68
2022/05/12 07:51:24;;;;;;;;;;;;;;;21.35;39.04;101158.19;5011376;28;98739;-68
2022/05/12 07:53:51;;;;;;;;;;;;;;;20.63;40.61;101167.88;5004108;28;96813;-68
2022/05/12 07:56:20;;;;;;;;;;;;;;;19.67;42.39;101181.69;5003971;28;97263;-67
2022/05/12 07:58:47;;;;;;;;;;;;;;;20.13;41.61;101190.16;4999567;28;97800;-67
2022/05/12 08:01:14;;;;;;;;;;;;;;;19.52;42.46;101195.22;5003436;28;101572;-68
2022/05/12 08:03:40;;;;;;;;;;;;;;;19.40;42.83;101200.41;4993723;28;98033;-67
2022/05/12 08:06:07;;;;;;;;;;;;;;;19.01;42.84;101210.97;5009565;28;97014;-67
2022/05/12 08:08:33;;;;;;;;;;;;;;;18.71;43.50;101217.28;4999568;28;98589;-68
2022/05/12 08:10:59;;;;;;;;;;;;;;;19.11;42.66;101217.47;5006216;28;99441;-67
2022/05/12 08:13:27;;;;;;;;;;;;;;;19.35;42.41;101217.72;4999654;28;97739;-67
2022/05/12 08:15:54;;;;;;;;;;;;;;;20.40;40.57;101221.47;5006085;28;96949;-67
2022/05/12 08:18:21;;;;;;;;;;;;;;;20.38;39.96;101226.94;5001104;28;100725;-67
2022/05/12 08:20:48;;;;;;;;;;;;;;;20.17;39.93;101239.97;5004583;28;98863;-67
2022/05/12 08:23:15;;;;;;;;;;;;;;;20.15;40.11;101231.13;5008708;28;96905;-66
2022/05/12 08:25:42;;;;;;;;;;;;;;;20.93;38.51;101242.75;5003917;28;97417;-68
2022/05/12 08:28:09;;;;;;;;;;;;;;;20.96;37.98;101239.84;5000249;28;101240;-67
2022/05/12 08:30:36;;;;;;;;;;;;;;;20.05;38.61;101247.97;5002723;28;97450;-67
2022/05/12 08:33:03;;;;;;;;;;;;;;;21.71;36.43;101245.19;5000794;28;96865;-67
2022/05/12 08:35:29;;;;;;;;;;;;;;;22.30;35.29;101248.78;5004462;28;96807;-68
2022/05/12 08:37:55;;;;;;;;;;;;;;;21.81;36.20;101263.22;4997789;28;99269;-69
2022/05/12 08:40:28;;;;;;;;;;;;;;;20.90;36.87;101259.06;5008118;28;98768;-67
2022/05/12 08:42:57;;;;;;;;;;;;;;;21.35;36.54;101264.84;4996335;28;96885;-68
2022/05/12 08:45:24;;;;;;;;;;;;;;;21.26;37.20;101266.41;5000447;28;97135;-68
2022/05/12 08:47:51;;;;;;;;;;;;;;;21.85;35.82;101269.22;4998726;28;98919;-66
2022/05/12 08:50:20;;;;;;;;;;;;;;;21.60;36.17;101283.59;5002378;28;98881;-68
2022/05/12 08:52:48;;;;;;;;;;;;;;;19.50;39.00;101289.13;4998851;28;96856;-68
2022/05/12 08:55:18;;;;;;;;;;;;;;;20.70;37.24;101294.53;5000347;28;97187;-67
2022/05/12 08:57:54;;;;;;;;;;;;;;;21.05;36.15;101289.38;5002707;28;98935;-68
2022/05/12 09:00:21;;;;;;;;;;;;;;;21.65;35.71;101291.34;4997837;28;98701;-68
2022/05/12 09:02:52;;;;;;;;;;;;;;;21.61;35.79;101290.72;5006238;28;98252;-68
2022/05/12 09:05:22;;;;;;;;;;;;;;;21.17;36.18;101301.13;5001427;28;96810;-66
2022/05/12 09:07:51;;;;;;;;;;;;;;;20.95;35.79;101294.53;5003652;28;98881;-69
2022/05/12 09:10:26;;;;;;;;;;;;;;;21.24;35.39;101294.34;5002588;28;98115;-67
2022/05/12 09:12:57;;;;;;;;;;;;;;;22.17;34.68;101307.22;5006246;28;96842;-71
2022/05/12 09:15:26;;;;;;;;;;;;;;;21.79;34.12;101308.19;5006825;28;97947;-73
2022/05/12 09:17:55;;;;;;;;;;;;;;;21.65;34.26;101319.13;5010122;28;98979;-71
2022/05/12 09:20:23;;;;;;;;;;;;;;;22.31;32.64;101315.13;4996774;28;98776;-72
2022/05/12 09:22:49;;;;;;;;;;;;;;;22.11;33.42;101305.00;5001700;28;97836;-72
2022/05/12 09:25:28;;;;;;;;;;;;;;;22.86;33.00;101318.97;4999534;28;97383;-72
2022/05/12 09:27:58;;;;;;;;;;;;;;;22.47;33.67;101320.19;5000022;28;99140;-72
2022/05/12 09:30:31;;;;;;;;;;;;;;;22.09;33.49;101323.94;4998728;28;99190;-72
2022/05/12 09:32:58;;;;;;;;;;;;;;;22.60;33.11;101342.50;5007061;28;97117;-73
2022/05/12 09:35:27;;;;;;;;;;;;;;;22.23;32.81;101344.44;5002260;28;96945;-72
2022/05/12 09:37:54;;;;;;;;;;;;;;;22.00;32.71;101339.91;4999278;28;99032;-71
2022/05/12 09:40:23;;;;;;;;;;;;;;;22.61;31.91;101330.78;4998200;28;97719;-71
2022/05/12 09:42:50;;;;;;;;;;;;;;;22.02;33.32;101343.34;5006065;28;96870;-72
2022/05/12 09:45:27;;;;;;;;;;;;;;;22.81;32.29;101329.28;5009488;28;96983;-73
2022/05/12 09:48:08;;;;;;;;;;;;;;;21.87;33.88;101346.16;4999847;28;98209;-73
2022/05/12 09:50:37;;;;;;;;;;;;;;;21.25;35.12;101357.88;5000574;28;99085;-72
2022/05/12 09:53:06;;;;;;;;;;;;;;;21.39;33.93;101352.41;5007370;28;96787;-72
2022/05/12 09:55:33;;;;;;;;;;;;;;;22.45;32.60;101354.47;5008303;28;97433;-72
2022/05/12 09:58:01;;;;;;;;;;;;;;;22.26;31.33;101346.88;5006222;28;97500;-71
2022/05/12 10:00:32;;;;;;;;;;;;;;;22.28;31.13;101339.56;5003078;28;98765;-72
2022/05/12 10:08:40;;;;;;;;;;;;;;;22.95;29.25;101334.44;4997853;28;97200;-72
2022/05/12 10:11:09;;;;;;;;;;;;;;;23.53;28.23;101333.41;5004283;28;98835;-72
2022/05/12 10:13:40;;;;;;;;;;;;;;;23.34;30.25;101352.88;4999582;28;97390;-72
2022/05/12 10:16:07;;;;;;;;;;;;;;;22.82;31.55;101339.06;4999564;28;96980;-72
2022/05/12 10:18:35;;;;;;;;;;;;;;;21.84;32.65;101348.22;5000884;28;101949;-72
2022/05/12 10:21:09;;;;;;;;;;;;;;;22.91;31.00;101346.41;4997525;28;98972;-73
2022/05/12 10:23:41;;;;;;;;;;;;;;;22.78;30.19;101334.88;5001834;28;96858;-73
2022/05/12 10:26:12;;;;;;;;;;;;;;;22.54;30.30;101349.22;4999690;28;96906;-72
2022/05/12 10:28:48;;;;;;;;;;;;;;;22.23;30.21;101347.13;4997694;28;98837;-72
2022/05/12 10:31:19;;;;;;;;;;;;;;;21.68;30.90;101359.22;5000257;28;102095;-73
2022/05/12 10:33:51;;;;;;;;;;;;;;;22.57;30.67;101357.09;5002715;28;97200;-72
2022/05/12 10:36:23;;;;;;;;;;;;;;;21.54;31.73;101355.78;5008703;28;96893;-71
2022/05/12 10:38:58;;;;;;;;;;;;;;;22.47;30.54;101352.50;5007268;28;99015;-72
2022/05/12 10:41:29;;;;;;;;;;;;;;;21.26;32.44;101365.84;4999762;28;98851;-72
2022/05/12 10:44:05;;;;;;;;;;;;;;;22.18;32.07;101370.84;5004598;28;97163;-71
2022/05/12 10:46:37;;;;;;;;;;;;;;;21.01;33.69;101352.34;5006873;28;96992;-73
2022/05/12 10:49:10;;;;;;;;;;;;;;;21.98;32.04;101361.56;4999331;27;101750;-72
2022/05/12 10:51:41;;;;;;;;;;;;;;;21.79;31.11;101355.78;5002198;28;101950;-72
2022/05/12 10:54:12;;;;;;;;;;;;;;;21.86;31.12;101357.00;5009496;28;96823;-73
2022/05/12 10:56:46;;;;;;;;;;;;;;;22.52;30.62;101353.00;5002904;28;96883;-72
2022/05/12 10:59:25;;;;;;;;;;;;;;;21.84;31.54;101356.28;5007078;28;98901;-71
2022/05/12 11:01:54;;;;;;;;;;;;;;;21.46;31.74;101362.56;5004576;28;97868;-72
2022/05/12 11:04:22;;;;;;;;;;;;;;;22.44;30.58;101369.78;5008022;28;96850;-71
2022/05/12 11:06:53;;;;;;;;;;;;;;;22.90;29.69;101369.00;5010606;28;97346;-71
2022/05/12 11:09:23;;;;;;;;;;;;;;;23.64;28.88;101364.91;5009997;28;99030;-72
2022/05/12 11:11:50;;;;;;;;;;;;;;;23.23;29.31;101363.66;5012562;28;98916;-72
2022/05/12 11:14:20;;;;;;;;;;;;;;;22.96;29.99;101365.81;5010959;28;97588;-71
2022/05/12 11:16:49;;;;;;;;;;;;;;;22.86;30.44;101354.88;5008492;28;97701;-72
2022/05/12 11:19:18;;;;;;;;;;;;;;;22.17;32.06;101374.50;5005628;28;98958;-72
2022/05/12 11:21:50;;;;;;;;;;;;;;;23.30;30.88;101367.56;5009449;28;100223;-70
2022/05/12 11:24:23;;;;;;;;;;;;;;;22.77;30.80;101370.91;5009021;28;96785;-71
2022/05/12 11:26:59;;;;;;;;;;;;;;;22.64;31.30;101373.66;5008900;28;96777;-72
2022/05/12 11:29:45;;;;;;;;;;;;;;;22.79;31.32;101372.47;5006494;28;97738;-71
2022/05/12 11:32:19;;;;;;;;;;;;;;;22.28;31.92;101374.56;5005672;28;98728;-72
2022/05/12 11:34:48;;;;;;;;;;;;;;;22.96;30.69;101368.50;5011909;28;96760;-71
2022/05/12 11:37:28;;;;;;;;;;;;;;;23.03;30.69;101373.31;5008752;28;96741;-72
2022/05/12 11:39:57;;;;;;;;;;;;;;;21.81;32.09;101370.81;5009052;28;98855;-72
2022/05/12 11:42:25;;;;;;;;;;;;;;;22.19;31.45;101375.22;5006627;28;98887;-71
2022/05/12 11:45:09;;;;;;;;;;;;;;;21.98;31.74;101379.53;5011364;28;97248;-71
2022/05/12 11:48:00;;;;;;;;;;;;;;;21.73;30.95;101362.44;4999311;28;97189;-71
2022/05/12 11:50:53;;;;;;;;;;;;;;;22.09;30.29;101374.22;4991104;28;97722;-72
2022/05/12 11:53:20;;;;;;;;;;;;;;;22.33;30.05;101371.53;5003107;28;99126;-71
2022/05/12 11:56:02;;;;;;;;;;;;;;;22.76;29.19;101385.34;5005899;28;97139;-71
2022/05/12 11:58:32;;;;;;;;;;;;;;;22.12;30.31;101379.38;5002549;28;96808;-72
2022/05/12 12:01:00;;;;;;;;;;;;;;;23.14;28.74;101377.84;5005537;28;98911;-73
2022/05/12 12:03:57;;;;;;;;;;;;;;;22.57;29.93;101388.56;5004159;28;97578;-74
2022/05/12 12:06:37;;;;;;;;;;;;;;;23.21;29.69;101392.56;5002870;28;96851;-71
2022/05/12 12:09:19;;;;;;;;;;;;;;;22.97;29.72;101405.25;5006944;28;97632;-71
2022/05/12 12:11:47;;;;;;;;;;;;;;;23.58;28.74;101409.44;5003586;28;99268;-68
2022/05/12 12:14:33;;;;;;;;;;;;;;;23.07;29.02;101398.19;5007048;28;97702;-67
2022/05/12 12:17:06;;;;;;;;;;;;;;;23.07;29.86;101411.66;5000298;28;96788;-67
2022/05/12 12:19:43;;;;;;;;;;;;;;;23.02;29.84;101403.94;5007981;28;96822;-67
2022/05/12 12:22:18;;;;;;;;;;;;;;;23.26;29.74;101403.00;5006305;28;99862;-68
2022/05/12 12:25:02;;;;;;;;;;;;;;;23.76;29.12;101405.25;5008234;28;98975;-69
2022/05/12 12:27:39;;;;;;;;;;;;;;;23.17;29.88;101387.56;5004962;28;96823;-68
2022/05/12 12:30:21;;;;;;;;;;;;;;;24.37;27.97;101394.03;5002705;28;96748;-67
2022/05/12 12:33:07;;;;;;;;;;;;;;;24.70;27.59;101402.00;5002760;28;98977;-68
2022/05/12 12:35:49;;;;;;;;;;;;;;;24.57;27.25;101395.91;5005541;28;97897;-69
2022/05/12 12:38:30;;;;;;;;;;;;;;;24.13;27.20;101396.88;5007002;28;98171;-72
2022/05/12 12:40:59;;;;;;;;;;;;;;;23.39;28.15;101387.56;5004113;28;96768;-71
2022/05/12 12:43:30;;;;;;;;;;;;;;;24.19;27.73;101386.47;5008436;28;99600;-73
2022/05/12 12:45:56;;;;;;;;;;;;;;;23.73;28.07;101396.56;5008653;28;98774;-72
2022/05/12 12:48:29;;;;;;;;;;;;;;;23.71;27.64;101396.69;5007402;28;97171;-72
2022/05/12 12:50:55;;;;;;;;;;;;;;;23.50;28.17;101386.75;5009619;28;97020;-74
2022/05/12 12:58:56;;;;;;;;;;;;;;;23.68;28.11;101385.28;4999295;28;97614;-67
2022/05/12 13:01:22;;;;;;;;;;;;;;;23.30;28.38;101383.75;5010002;28;96888;-67
2022/05/12 13:03:52;;;;;;;;;;;;;;;24.09;27.66;101390.88;5003443;28;99484;-68
2022/05/12 13:06:25;;;;;;;;;;;;;;;25.18;25.45;101369.97;5008277;28;99043;-68